Flight VSA011F

  • Submitted By: Kevin Harkins
  • Departure Airport: Cincinnati/Northern Kentucky KCVG HUB (KCVG)
  • Arrival Airport: Hartsfield/Jackson Atlanta (KATL)
  • Aircraft: B737-400F (N494SA)
  • Flight Time: 01.07
  • Date Submitted: 10/11/2016
  • Route: DIRKCVG DCT FLM J43 VXV J91 NOTWO DCT KATLECPILOTS CHOICE KCVG DCT FLM J43 VXV J91 NOTWO DCT KATL
  • Status: Accepted
Flight Details
Gross Revenue:
(55569 load / $ 56.00 per unit
$ 3,111,864.00
Fuel Cost:
(6130 fuel used @ 5.1 / unit)
$ 31,263.00

Flight Details

  • Upper FWD Main: 10 x LD7
  • Upper AFT Main: 10 x AYY
  • Lower FWD: 10 US Mail Bags
  • Lower AFT: none
  • WX Engine used: FS WX
  • Flight Type IFR/VFR: IFR
  • Number of Flight Crew: 2
  • Upper Main Center Single : -
  • A380 UPR MAIN SGL: -
  • A380 MID MAIN SGL: -
  • A380 LWR DECK SGL: -

Additional Log Information:

View Log

[09:16] Aircraft Title - 737-400F Southern Air
[09:16] Aircraft Model - B734
[09:16] Flight Number VSA011F
[09:16] Departure KCVG
[09:16] Destination KATL
[09:16] Boarding
[09:16] Taxiing to Runway
[09:20] Taking Off
[09:21] Taking Off
[09:21] 217kts
[09:21] pitch angle 8 degrees
[09:21] 8927 (lbs) of fuel onboard
[09:21] Climbing
[09:31] TOC Reached
[09:31] Cruise 24000
[09:54] TOD Reached
[09:54] Descending
[10:00] On Approach
[10:18] Landing Rate -127fpm
[10:18] 3639 (lbs) of fuel onboard
[10:18] pitch angle 5 degrees
[10:19] Taxiing to Gate
[10:23] Arrived
[10:23] Max Sim Rate: 1x
[10:23] kACARS_Free Version 1.0.1.1

Comments

Commenter Comment
Kevin Harkins KCVG/KATL WX KCVG 111252Z 12005KT 10SM FEW070 SCT150 BKN170 OVC300 12/07 A3032 RMK AO2 SLP263 VIRGA S-SW OVC THN T01170067 WX KATL 111352Z 08007KT 10SM FEW250 15/09 A3039 RMK AO2 SLP289 T01500089 FLT PLAN KCVG FLM J43 VXV J91 NOTWO KATL CREW 2

Route Map

Pilots Online

Guests Online